createdAt,value
2022-08-03T00:01:32.055Z,18.02
2022-08-03T00:03:59.724Z,18.02
2022-08-03T00:06:27.461Z,17.99
2022-08-03T00:08:55.042Z,17.97
2022-08-03T00:11:22.705Z,17.93
2022-08-03T00:13:50.748Z,17.92
2022-08-03T00:16:20.503Z,17.90
2022-08-03T00:18:50.714Z,17.88
2022-08-03T00:21:18.379Z,17.88
2022-08-03T00:23:52.087Z,17.85
2022-08-03T00:26:20.639Z,17.82
2022-08-03T00:28:48.610Z,17.80
2022-08-03T00:31:16.230Z,17.76
2022-08-03T00:33:59.132Z,17.74
2022-08-03T00:36:28.182Z,17.73
2022-08-03T00:38:56.107Z,17.71
2022-08-03T00:41:23.868Z,17.69
2022-08-03T00:43:52.009Z,17.66
2022-08-03T00:46:22.181Z,17.63
2022-08-03T00:48:51.517Z,17.60
2022-08-03T00:51:19.558Z,17.58
2022-08-03T00:53:47.397Z,17.54
2022-08-03T00:56:15.453Z,17.53
2022-08-03T00:58:45.961Z,17.50
2022-08-03T01:01:13.924Z,17.49
2022-08-03T01:03:42.146Z,17.47
2022-08-03T01:06:19.190Z,17.44
2022-08-03T01:08:53.279Z,17.43
2022-08-03T01:11:33.110Z,17.42
2022-08-03T01:14:18.675Z,17.40
2022-08-03T01:16:57.061Z,17.38
2022-08-03T01:19:47.046Z,17.36
2022-08-03T01:22:38.083Z,17.33
2022-08-03T01:25:11.044Z,17.32
2022-08-03T01:27:53.535Z,17.30
2022-08-03T01:30:26.835Z,17.28
2022-08-03T01:33:01.645Z,17.27
2022-08-03T01:35:38.834Z,17.25
2022-08-03T01:38:12.543Z,17.23
2022-08-03T01:40:42.219Z,17.22
2022-08-03T01:43:12.491Z,17.20
2022-08-03T01:45:45.061Z,17.19
2022-08-03T01:48:16.779Z,17.18
2022-08-03T01:50:45.989Z,17.16
2022-08-03T01:53:16.418Z,17.15
2022-08-03T01:55:45.231Z,17.13
2022-08-03T01:58:16.081Z,17.11
2022-08-03T02:00:47.763Z,17.09
2022-08-03T02:03:17.465Z,17.07
2022-08-03T02:05:48.032Z,17.05
2022-08-03T02:08:18.222Z,17.04
2022-08-03T02:10:46.978Z,17.02
2022-08-03T02:13:17.462Z,16.99
2022-08-03T02:15:48.421Z,16.98
2022-08-03T02:18:16.866Z,16.98
2022-08-03T02:20:45.514Z,16.97
2022-08-03T02:23:13.458Z,16.97
2022-08-03T02:25:45.541Z,16.94
2022-08-03T02:28:18.278Z,16.93
2022-08-03T02:30:53.944Z,16.91
2022-08-03T02:33:27.888Z,16.91
2022-08-03T02:35:58.131Z,16.92
2022-08-03T02:38:32.085Z,16.91
2022-08-03T02:41:02.133Z,16.89
2022-08-03T02:43:39.066Z,16.88
2022-08-03T02:46:26.000Z,16.88
2022-08-03T02:48:56.002Z,16.86
2022-08-03T02:51:25.471Z,16.83
2022-08-03T02:53:55.574Z,16.77
2022-08-03T02:56:24.730Z,16.75
2022-08-03T02:58:53.378Z,16.74
2022-08-03T03:01:23.383Z,16.73
2022-08-03T03:03:52.926Z,16.72
2022-08-03T03:06:21.299Z,16.71
2022-08-03T03:08:55.527Z,16.71
2022-08-03T03:11:26.667Z,16.69
2022-08-03T03:13:56.699Z,16.67
2022-08-03T03:16:27.190Z,16.66
2022-08-03T03:18:55.899Z,16.66
2022-08-03T03:21:24.617Z,16.65
2022-08-03T03:23:54.215Z,16.65
2022-08-03T03:26:21.990Z,16.61
2022-08-03T03:28:49.750Z,16.61
2022-08-03T03:31:18.595Z,16.58
2022-08-03T03:33:48.482Z,16.57
2022-08-03T03:36:16.342Z,16.56
2022-08-03T03:38:44.343Z,16.55
2022-08-03T03:41:12.226Z,16.54
2022-08-03T03:43:40.045Z,16.52
2022-08-03T03:46:07.921Z,16.51
2022-08-03T03:48:35.578Z,16.50
2022-08-03T03:51:04.828Z,16.48
2022-08-03T03:53:32.429Z,16.47
2022-08-03T03:56:02.349Z,16.46
2022-08-03T03:58:31.985Z,16.45
2022-08-03T04:00:59.828Z,16.46
2022-08-03T04:03:27.595Z,16.46
2022-08-03T04:06:12.975Z,16.49
2022-08-03T04:08:59.339Z,16.47
2022-08-03T04:11:31.517Z,16.47
2022-08-03T04:14:04.322Z,16.46
2022-08-03T04:16:34.661Z,16.48
2022-08-03T04:19:06.983Z,16.50
2022-08-03T04:21:38.912Z,16.50
2022-08-03T04:24:09.846Z,16.54
2022-08-03T04:26:40.303Z,16.53
2022-08-03T04:29:10.051Z,16.54
2022-08-03T04:31:40.295Z,16.56
2022-08-03T04:34:08.669Z,16.58
2022-08-03T04:36:40.934Z,16.59
2022-08-03T04:39:26.430Z,16.62
2022-08-03T04:42:04.429Z,16.61
2022-08-03T04:44:38.950Z,16.64
2022-08-03T04:47:06.906Z,16.66
2022-08-03T04:49:37.015Z,16.67
2022-08-03T04:52:05.847Z,16.68
2022-08-03T04:54:42.323Z,16.72
2022-08-03T04:57:10.983Z,16.73
2022-08-03T04:59:59.580Z,16.76
2022-08-03T05:02:29.610Z,16.78
2022-08-03T05:04:57.260Z,16.80
2022-08-03T05:07:25.370Z,16.83
2022-08-03T05:10:01.724Z,16.86
2022-08-03T05:12:33.932Z,16.91
2022-08-03T05:15:02.263Z,16.95
2022-08-03T05:17:30.067Z,17.01
2022-08-03T05:19:57.867Z,17.07
2022-08-03T05:22:25.536Z,17.13
2022-08-03T05:24:54.505Z,17.16
2022-08-03T05:27:22.113Z,17.21
2022-08-03T05:29:51.941Z,17.23
2022-08-03T05:32:20.285Z,17.28
2022-08-03T05:34:48.066Z,17.31
2022-08-03T05:37:16.058Z,17.35
2022-08-03T05:39:43.682Z,17.42
2022-08-03T05:42:12.673Z,17.48
2022-08-03T05:44:40.270Z,17.54
2022-08-03T05:47:08.607Z,17.59
2022-08-03T05:49:36.300Z,17.65
2022-08-03T05:52:21.863Z,17.71
2022-08-03T05:54:55.920Z,17.78
2022-08-03T05:57:26.835Z,17.84
2022-08-03T05:59:58.378Z,17.91
2022-08-03T06:02:26.682Z,17.99
2022-08-03T06:04:54.645Z,18.05
2022-08-03T06:07:22.367Z,18.14
2022-08-03T06:10:37.578Z,18.23
2022-08-03T06:12:41.134Z,18.34
2022-08-03T06:15:11.566Z,18.44
2022-08-03T06:17:46.055Z,18.55
2022-08-03T06:20:13.951Z,18.65
2022-08-03T06:22:50.451Z,18.74
2022-08-03T06:25:19.370Z,18.86
2022-08-03T06:27:50.402Z,18.99
2022-08-03T06:30:21.260Z,19.11
2022-08-03T06:32:51.748Z,19.26
2022-08-03T06:35:20.705Z,19.43
2022-08-03T06:37:50.343Z,19.57
2022-08-03T06:40:24.311Z,19.72
2022-08-03T06:42:53.861Z,19.90
2022-08-03T06:45:21.686Z,20.06
2022-08-03T06:47:49.282Z,20.21
2022-08-03T06:50:19.008Z,20.36
2022-08-03T06:52:48.315Z,20.52
2022-08-03T06:55:15.914Z,20.67
2022-08-03T06:57:43.998Z,20.86
2022-08-03T07:00:14.531Z,21.09
2022-08-03T07:02:42.774Z,21.33
2022-08-03T07:05:11.112Z,21.52
2022-08-03T07:07:39.234Z,21.75
2022-08-03T07:10:08.309Z,21.90
2022-08-03T07:12:36.983Z,22.08
2022-08-03T07:15:05.845Z,22.27
2022-08-03T07:17:36.925Z,22.42
2022-08-03T07:20:08.012Z,22.62
2022-08-03T07:22:36.061Z,22.81
2022-08-03T07:25:03.945Z,23.04
2022-08-03T07:27:33.718Z,23.24
2022-08-03T07:30:01.377Z,23.38
2022-08-03T07:32:31.252Z,23.56
2022-08-03T07:35:01.341Z,23.74
2022-08-03T07:37:30.366Z,23.84
2022-08-03T07:39:58.467Z,24.01
2022-08-03T07:42:26.184Z,24.14
2022-08-03T07:44:53.837Z,24.29
2022-08-03T07:47:22.651Z,24.42
2022-08-03T07:49:50.858Z,24.54
2022-08-03T07:52:37.438Z,24.66
2022-08-03T07:55:06.288Z,24.79
2022-08-03T07:57:34.262Z,24.89
2022-08-03T08:00:02.834Z,24.95
2022-08-03T08:02:39.677Z,25.11
2022-08-03T08:05:07.955Z,25.33
2022-08-03T08:07:36.900Z,25.54
2022-08-03T08:10:05.685Z,25.68
2022-08-03T08:12:33.356Z,25.77
2022-08-03T08:15:01.203Z,25.84
2022-08-03T08:17:28.882Z,25.89
2022-08-03T08:19:56.566Z,25.96
2022-08-03T08:22:30.232Z,26.05
2022-08-03T08:25:01.034Z,26.17
2022-08-03T08:28:29.647Z,26.25
2022-08-03T08:30:19.467Z,26.28
2022-08-03T08:32:47.651Z,26.27
2022-08-03T08:35:16.084Z,26.24
2022-08-03T08:37:44.245Z,26.27
2022-08-03T08:40:21.590Z,26.33
2022-08-03T08:42:58.551Z,26.44
2022-08-03T08:45:27.650Z,26.51
2022-08-03T08:48:00.354Z,26.53
2022-08-03T08:50:30.922Z,26.51
2022-08-03T08:53:03.023Z,26.51
2022-08-03T08:55:58.583Z,26.55
2022-08-03T08:58:23.238Z,26.61
2022-08-03T09:00:52.002Z,26.70
2022-08-03T09:03:28.942Z,26.70
2022-08-03T09:05:59.223Z,26.79
2022-08-03T09:08:27.184Z,26.87
2022-08-03T09:10:56.144Z,26.94
2022-08-03T09:13:23.860Z,27.00
2022-08-03T09:16:10.875Z,27.05
2022-08-03T09:18:38.822Z,27.19
2022-08-03T09:21:37.278Z,27.29
2022-08-03T09:24:13.103Z,27.39
2022-08-03T09:26:53.601Z,27.45
2022-08-03T09:29:22.135Z,27.49
2022-08-03T09:31:49.772Z,27.52
2022-08-03T09:34:18.568Z,27.58
2022-08-03T09:36:47.626Z,27.63
2022-08-03T09:39:17.321Z,27.71
2022-08-03T09:41:48.105Z,27.84
2022-08-03T09:44:25.142Z,27.94
2022-08-03T09:46:56.143Z,28.03
2022-08-03T09:49:24.954Z,28.07
2022-08-03T09:52:32.867Z,28.08
2022-08-03T09:54:41.538Z,28.11
2022-08-03T09:57:21.703Z,28.10
2022-08-03T09:59:49.655Z,28.07
2022-08-03T10:02:25.316Z,28.07
2022-08-03T10:04:54.056Z,28.10
2022-08-03T10:07:23.522Z,28.08
2022-08-03T10:09:56.144Z,28.09
2022-08-03T10:12:25.895Z,28.16
2022-08-03T10:14:55.520Z,28.23
2022-08-03T10:17:24.875Z,28.29
2022-08-03T10:19:52.592Z,28.34
2022-08-03T10:22:23.889Z,28.39
2022-08-03T10:24:56.639Z,28.46
2022-08-03T10:27:27.903Z,28.50
2022-08-03T10:29:57.563Z,28.54
2022-08-03T10:32:31.511Z,28.52
2022-08-03T10:35:18.935Z,28.49
2022-08-03T10:37:57.162Z,28.45
2022-08-03T10:40:47.523Z,28.41
2022-08-03T10:43:20.805Z,28.43
2022-08-03T10:45:48.597Z,28.44
2022-08-03T10:48:17.341Z,28.49
2022-08-03T10:50:45.397Z,28.54
2022-08-03T10:53:14.739Z,28.69
2022-08-03T10:56:05.837Z,28.69
2022-08-03T10:58:56.925Z,28.70
2022-08-03T11:02:00.823Z,28.75
2022-08-03T11:04:30.633Z,28.85
2022-08-03T11:07:22.572Z,28.96
2022-08-03T11:09:51.976Z,29.07
2022-08-03T11:12:31.557Z,29.12
2022-08-03T11:15:07.368Z,29.06
2022-08-03T11:17:45.885Z,29.03
2022-08-03T11:20:47.899Z,29.00
2022-08-03T11:23:16.238Z,28.99
2022-08-03T11:26:16.130Z,29.04
2022-08-03T11:28:45.955Z,29.07
2022-08-03T11:31:50.759Z,29.16
2022-08-03T11:34:19.548Z,29.20
2022-08-03T11:37:23.146Z,29.28
2022-08-03T11:39:54.394Z,29.39
2022-08-03T11:42:48.207Z,29.41
2022-08-03T11:45:16.703Z,29.51
2022-08-03T11:47:50.481Z,29.60
2022-08-03T11:50:21.208Z,29.67
2022-08-03T11:52:49.987Z,29.76
2022-08-03T11:55:21.672Z,29.82
2022-08-03T11:59:02.642Z,29.90
2022-08-03T12:00:37.803Z,29.94
2022-08-03T12:03:09.517Z,29.97
2022-08-03T12:05:40.086Z,30.04
2022-08-03T12:08:08.819Z,30.14
2022-08-03T12:10:37.005Z,30.19
2022-08-03T12:14:30.064Z,30.25
2022-08-03T12:15:57.397Z,30.35
2022-08-03T12:18:26.879Z,30.39
2022-08-03T12:21:05.553Z,30.47
2022-08-03T12:23:37.401Z,30.58
2022-08-03T12:26:07.739Z,30.61
2022-08-03T12:28:37.267Z,30.65
2022-08-03T12:31:09.172Z,30.72
2022-08-03T12:33:59.573Z,30.77
2022-08-03T12:36:28.318Z,30.73
2022-08-03T12:38:57.653Z,30.79
2022-08-03T12:41:30.949Z,30.80
2022-08-03T12:43:58.836Z,30.88
2022-08-03T12:46:31.696Z,30.90
2022-08-03T12:49:06.664Z,30.95
2022-08-03T12:51:36.046Z,30.99
2022-08-03T12:54:05.585Z,31.05
2022-08-03T12:56:33.388Z,31.10
2022-08-03T12:59:01.031Z,31.07
2022-08-03T13:01:37.656Z,31.12
2022-08-03T13:04:06.820Z,31.22
2022-08-03T13:06:34.578Z,31.34
2022-08-03T13:09:05.302Z,31.46
2022-08-03T13:11:58.079Z,31.59
2022-08-03T13:14:20.781Z,31.65
2022-08-03T13:16:49.551Z,31.73
2022-08-03T13:19:18.702Z,31.80
2022-08-03T13:22:01.732Z,31.87
2022-08-03T13:24:33.590Z,31.90
2022-08-03T13:27:58.819Z,32.01
2022-08-03T13:29:50.355Z,32.13
2022-08-03T13:32:18.095Z,32.23
2022-08-03T13:34:47.393Z,32.33
2022-08-03T13:37:15.477Z,32.44
2022-08-03T13:39:57.882Z,32.52
2022-08-03T13:42:28.709Z,32.58
2022-08-03T13:44:56.329Z,32.66
2022-08-03T13:47:24.120Z,32.73
2022-08-03T13:49:59.815Z,32.84
2022-08-03T13:52:30.749Z,32.98
2022-08-03T13:54:58.471Z,32.98
2022-08-03T13:58:06.522Z,32.96
2022-08-03T14:00:16.661Z,33.04
2022-08-03T14:03:02.829Z,33.17
2022-08-03T14:05:33.690Z,33.32
2022-08-03T14:08:04.821Z,33.37
2022-08-03T14:10:33.235Z,33.23
2022-08-03T14:13:01.219Z,33.24
2022-08-03T14:15:29.003Z,33.29
2022-08-03T14:17:58.745Z,33.37
2022-08-03T14:20:37.786Z,33.47
2022-08-03T14:23:08.955Z,33.55
2022-08-03T14:25:44.487Z,33.54
2022-08-03T14:28:20.873Z,33.55
2022-08-03T14:30:48.677Z,33.67
2022-08-03T14:33:16.708Z,33.86
2022-08-03T14:35:44.334Z,34.04
2022-08-03T14:38:13.379Z,34.15
2022-08-03T14:40:41.375Z,34.17
2022-08-03T14:43:09.157Z,34.30
2022-08-03T14:45:37.013Z,34.35
2022-08-03T14:50:33.073Z,34.43
2022-08-03T14:50:55.054Z,34.57
2022-08-03T14:53:24.282Z,34.61
2022-08-03T14:55:53.267Z,34.65
2022-08-03T14:58:21.970Z,34.60
2022-08-03T15:00:51.434Z,34.67
2022-08-03T15:03:22.991Z,34.80
2022-08-03T15:05:51.446Z,34.73
2022-08-03T15:08:19.054Z,34.68
2022-08-03T15:10:49.282Z,34.77
2022-08-03T15:13:17.518Z,34.76
2022-08-03T15:15:45.206Z,34.74
2022-08-03T15:18:12.891Z,34.78
2022-08-03T15:20:44.818Z,34.78
2022-08-03T15:23:13.899Z,34.73
2022-08-03T15:26:27.917Z,34.65
2022-08-03T15:28:31.459Z,34.59
2022-08-03T15:30:59.373Z,34.47
2022-08-03T15:33:27.034Z,34.37
2022-08-03T15:35:55.114Z,34.30
2022-08-03T15:38:25.678Z,34.23
2022-08-03T15:40:54.379Z,34.16
2022-08-03T15:43:22.236Z,33.95
2022-08-03T15:46:19.207Z,33.86
2022-08-03T15:48:39.042Z,33.74
2022-08-03T15:51:07.318Z,33.61
2022-08-03T15:53:35.192Z,33.49
2022-08-03T15:56:09.408Z,33.48
2022-08-03T15:59:09.809Z,33.45
2022-08-03T16:01:28.463Z,33.41
2022-08-03T16:03:56.123Z,33.38
2022-08-03T16:06:29.846Z,33.31
2022-08-03T16:09:03.555Z,33.21
2022-08-03T16:11:31.339Z,33.08
2022-08-03T16:14:13.772Z,32.94
2022-08-03T16:16:48.211Z,32.80
2022-08-03T16:19:16.243Z,32.64
2022-08-03T16:21:48.300Z,32.50
2022-08-03T16:24:17.558Z,32.36
2022-08-03T16:26:47.780Z,32.17
2022-08-03T16:29:23.566Z,32.04
2022-08-03T16:31:53.400Z,31.92
2022-08-03T16:34:21.481Z,31.83
2022-08-03T16:36:49.106Z,31.74
2022-08-03T16:39:16.757Z,31.64
2022-08-03T16:41:54.291Z,31.55
2022-08-03T16:44:30.625Z,31.47
2022-08-03T16:46:59.875Z,31.38
2022-08-03T16:49:54.628Z,31.32
2022-08-03T16:52:16.795Z,31.25
2022-08-03T16:54:52.674Z,31.16
2022-08-03T16:57:55.872Z,31.08
2022-08-03T17:00:11.752Z,30.99
2022-08-03T17:02:43.065Z,30.92
2022-08-03T17:05:16.106Z,30.85
2022-08-03T17:07:46.816Z,30.76
2022-08-03T17:10:27.462Z,30.69
2022-08-03T17:12:55.455Z,30.64
2022-08-03T17:15:51.697Z,30.56
2022-08-03T17:18:18.120Z,30.49
2022-08-03T17:20:50.835Z,30.41
2022-08-03T17:23:35.980Z,30.32
2022-08-03T17:26:10.613Z,30.24
2022-08-03T17:28:50.193Z,30.14
2022-08-03T17:31:31.142Z,30.09
2022-08-03T17:34:04.616Z,30.04
2022-08-03T17:37:02.812Z,29.97
2022-08-03T17:39:48.471Z,29.92
2022-08-03T17:42:29.384Z,29.88
2022-08-03T17:45:01.723Z,29.86
2022-08-03T17:47:42.752Z,29.86
2022-08-03T17:50:24.235Z,29.83
2022-08-03T17:53:01.218Z,29.80
2022-08-03T17:55:56.628Z,29.78
2022-08-03T17:58:37.802Z,29.71
2022-08-03T18:02:03.318Z,29.66
2022-08-03T18:04:30.202Z,29.63
2022-08-03T18:07:11.110Z,29.61
2022-08-03T18:10:04.900Z,29.59
2022-08-03T18:12:48.045Z,29.56
2022-08-03T18:15:26.087Z,29.50
2022-08-03T18:20:45.682Z,29.41
2022-08-03T18:23:25.305Z,29.36
2022-08-03T18:26:06.998Z,29.30
2022-08-03T18:28:36.171Z,29.23
2022-08-03T18:31:06.044Z,29.16
2022-08-03T18:34:17.823Z,29.07
2022-08-03T18:36:30.280Z,28.99
2022-08-03T18:39:02.705Z,28.76
2022-08-03T18:41:33.439Z,28.58
2022-08-03T18:44:08.660Z,28.45
2022-08-03T18:47:07.553Z,28.29
2022-08-03T18:49:42.927Z,28.14
2022-08-03T18:52:17.638Z,28.02
2022-08-03T18:55:02.814Z,27.90
2022-08-03T18:57:43.856Z,27.76
2022-08-03T19:00:16.013Z,27.63
2022-08-03T19:02:49.997Z,27.46
2022-08-03T19:05:20.441Z,27.32
2022-08-03T19:07:59.859Z,27.14
2022-08-03T19:10:32.393Z,26.93
2022-08-03T19:13:04.871Z,26.71
2022-08-03T19:15:51.298Z,26.52
2022-08-03T19:18:21.756Z,26.33
2022-08-03T19:20:53.198Z,26.17
2022-08-03T19:23:24.887Z,26.05
2022-08-03T19:25:54.251Z,25.97
2022-08-03T19:28:29.782Z,25.89
2022-08-03T19:31:02.645Z,25.79
2022-08-03T19:33:56.702Z,25.67
2022-08-03T19:36:26.554Z,25.58
2022-08-03T19:38:57.026Z,25.48
2022-08-03T19:41:31.132Z,25.38
2022-08-03T19:44:11.508Z,25.27
2022-08-03T19:46:48.147Z,25.15
2022-08-03T19:49:17.789Z,25.05
2022-08-03T19:52:00.737Z,24.94
2022-08-03T19:54:45.644Z,24.83
2022-08-03T19:57:26.826Z,24.65
2022-08-03T19:59:56.219Z,24.53
2022-08-03T20:02:27.250Z,24.44
2022-08-03T20:04:57.432Z,24.36
2022-08-03T20:07:25.876Z,24.28
2022-08-03T20:09:54.434Z,24.19
2022-08-03T20:12:28.083Z,24.11
2022-08-03T20:14:57.346Z,24.04
2022-08-03T20:17:54.555Z,23.97
2022-08-03T20:20:13.567Z,23.90
2022-08-03T20:22:45.490Z,23.82
2022-08-03T20:28:13.774Z,23.68
2022-08-03T20:30:44.214Z,23.62
2022-08-03T20:33:12.266Z,23.54
2022-08-03T20:35:49.401Z,23.48
2022-08-03T20:38:18.906Z,23.43
2022-08-03T20:40:47.405Z,23.36
2022-08-03T20:43:16.845Z,23.29
2022-08-03T20:46:00.295Z,23.19
2022-08-03T20:48:36.696Z,23.09
2022-08-03T20:51:05.888Z,22.98
2022-08-03T20:53:59.537Z,22.91
2022-08-03T20:56:33.519Z,22.85
2022-08-03T20:59:04.905Z,22.79
2022-08-03T21:01:36.128Z,22.76
2022-08-03T21:04:06.951Z,22.71
2022-08-03T21:06:39.564Z,22.66
2022-08-03T21:09:08.596Z,22.63
2022-08-03T21:11:42.140Z,22.60
2022-08-03T21:13:05.681Z,29.46
2022-08-03T21:13:06.786Z,23.76
2022-08-03T21:14:16.844Z,22.57
2022-08-03T21:16:46.116Z,22.53
2022-08-03T21:19:15.501Z,22.49
2022-08-03T21:21:45.588Z,22.43
2022-08-03T21:24:16.551Z,22.38
2022-08-03T21:26:48.346Z,22.35
2022-08-03T21:29:18.305Z,22.34
2022-08-03T21:31:46.421Z,22.26
2022-08-03T21:34:14.261Z,22.22
2022-08-03T21:36:42.311Z,22.19
2022-08-03T21:39:11.524Z,22.16
2022-08-03T21:41:40.739Z,22.14
2022-08-03T21:44:08.708Z,22.10
2022-08-03T21:46:40.064Z,22.06
2022-08-03T21:49:52.124Z,22.02
2022-08-03T21:52:00.391Z,21.98
2022-08-03T21:54:34.588Z,21.95
2022-08-03T21:57:05.150Z,21.89
2022-08-03T21:59:37.521Z,21.86
2022-08-03T22:02:11.523Z,21.83
2022-08-03T22:04:55.955Z,21.80
2022-08-03T22:07:26.050Z,21.80
2022-08-03T22:09:55.266Z,21.73
2022-08-03T22:12:24.528Z,21.70
2022-08-03T22:15:01.109Z,21.66
2022-08-03T22:17:55.263Z,21.64
2022-08-03T22:20:21.491Z,21.61
2022-08-03T22:22:55.931Z,21.56
2022-08-03T22:25:28.711Z,21.53
2022-08-03T22:27:57.302Z,21.51
2022-08-03T22:30:24.931Z,21.50
2022-08-03T22:32:56.346Z,21.44
2022-08-03T22:35:26.709Z,21.42
2022-08-03T22:37:55.989Z,21.39
2022-08-03T22:40:23.603Z,21.36
2022-08-03T22:42:52.272Z,21.33
2022-08-03T22:45:45.099Z,21.28
2022-08-03T22:48:09.661Z,21.22
2022-08-03T22:50:38.404Z,21.18
2022-08-03T22:53:07.719Z,21.17
2022-08-03T22:55:35.631Z,21.13
2022-08-03T22:58:03.565Z,21.13
2022-08-03T23:00:31.191Z,21.09
2022-08-03T23:03:03.013Z,21.06
2022-08-03T23:06:02.188Z,21.06
2022-08-03T23:08:25.529Z,20.98
2022-08-03T23:10:56.989Z,20.95
2022-08-03T23:13:30.373Z,20.92
2022-08-03T23:16:01.358Z,20.87
2022-08-03T23:18:36.772Z,20.85
2022-08-03T23:21:11.232Z,20.80
2022-08-03T23:23:44.211Z,20.79
2022-08-03T23:26:13.629Z,20.77
2022-08-03T23:28:46.024Z,20.73
2022-08-03T23:31:15.229Z,20.73
2022-08-03T23:33:45.377Z,20.69
2022-08-03T23:36:30.526Z,20.65
2022-08-03T23:39:02.038Z,20.61
2022-08-03T23:41:30.461Z,20.58
2022-08-03T23:44:01.819Z,20.56
2022-08-03T23:46:31.738Z,20.54
2022-08-03T23:49:00.165Z,20.51
2022-08-03T23:51:42.171Z,20.50
2022-08-03T23:54:13.755Z,20.50
2022-08-03T23:56:55.793Z,20.42
2022-08-03T23:59:33.088Z,20.40
